Time;durP1;ratioP1;P1;durP2;ratioP2;P2;SDS_P1;SDS_P2;PMS_P1;PMS_P2;Temp;Humidity;BMP_temperature;BMP_pressure;BME280_temperature;BME280_humidity;BME280_pressure;Samples;Min_cycle;Max_cycle;Signal;HPM_P1;HPM_P2
2022/06/26 00:01:55;;;;;;;1.00;0.40;;;19.70;99.90;;;;;;4989313;28;20021;-89
2022/06/26 00:04:21;;;;;;;1.08;0.40;;;19.80;99.90;;;;;;5004190;28;20466;-89
2022/06/26 00:06:47;;;;;;;1.23;0.50;;;19.70;99.90;;;;;;5001941;28;20899;-90
2022/06/26 00:09:13;;;;;;;1.15;0.50;;;19.70;99.90;;;;;;5012253;28;20019;-90
2022/06/26 00:11:38;;;;;;;0.68;0.40;;;19.70;99.90;;;;;;5011392;28;20065;-90
2022/06/26 00:14:06;;;;;;;1.20;0.50;;;19.60;99.90;;;;;;5001743;28;20109;-90
2022/06/26 00:16:32;;;;;;;1.25;0.60;;;19.60;99.90;;;;;;4987238;28;20030;-89
2022/06/26 00:18:58;;;;;;;1.20;0.50;;;19.60;99.90;;;;;;5004857;28;20019;-90
2022/06/26 00:21:24;;;;;;;2.55;0.45;;;19.40;99.90;;;;;;5022314;28;20116;-91
2022/06/26 00:23:49;;;;;;;1.63;0.70;;;19.50;99.90;;;;;;5012895;28;20510;-89
2022/06/26 00:26:18;;;;;;;1.85;0.40;;;19.40;99.90;;;;;;4995673;28;20049;-89
2022/06/26 00:28:43;;;;;;;1.65;0.60;;;19.40;99.90;;;;;;4997001;28;20139;-88
2022/06/26 00:31:09;;;;;;;1.15;0.65;;;19.40;99.90;;;;;;4996024;28;20092;-90
2022/06/26 00:33:34;;;;;;;1.55;0.70;;;19.40;99.90;;;;;;5011228;28;20026;-89
2022/06/26 00:36:00;;;;;;;2.20;0.65;;;19.40;99.90;;;;;;4996235;28;20474;-90
2022/06/26 00:38:26;;;;;;;1.13;0.40;;;19.40;99.90;;;;;;4999235;28;20026;-89
2022/06/26 00:40:55;;;;;;;1.25;0.70;;;19.30;99.90;;;;;;5022484;28;20045;-90
2022/06/26 00:43:26;;;;;;;2.28;0.70;;;19.10;99.90;;;;;;5007688;28;20022;-89
2022/06/26 00:45:52;;;;;;;1.40;0.68;;;19.20;99.90;;;;;;4994517;28;20371;-89
2022/06/26 00:48:17;;;;;;;3.88;0.65;;;19.10;99.90;;;;;;5005160;28;20033;-90
2022/06/26 00:50:43;;;;;;;1.70;0.40;;;19.10;99.90;;;;;;5011096;28;20109;-89
2022/06/26 00:53:09;;;;;;;0.65;0.30;;;19.10;99.90;;;;;;5016207;28;20017;-90
2022/06/26 00:55:34;;;;;;;0.57;0.20;;;19.10;99.90;;;;;;5013910;28;20428;-90
2022/06/26 00:58:00;;;;;;;1.27;0.40;;;19.20;99.90;;;;;;5012668;28;20040;-89
2022/06/26 01:00:29;;;;;;;0.88;0.40;;;19.20;99.90;;;;;;4994733;28;20157;-89
2022/06/26 01:02:55;;;;;;;1.05;0.38;;;19.30;99.90;;;;;;5010953;28;20026;-90
2022/06/26 01:05:20;;;;;;;1.00;0.40;;;19.30;99.90;;;;;;4990820;28;20032;-90
2022/06/26 01:07:46;;;;;;;1.10;0.30;;;19.30;99.90;;;;;;5008534;28;20026;-89
2022/06/26 01:10:12;;;;;;;1.10;0.30;;;19.40;99.90;;;;;;4995068;28;20443;-89
2022/06/26 01:12:38;;;;;;;0.47;0.22;;;19.40;99.90;;;;;;4994026;28;20033;-89
2022/06/26 01:15:08;;;;;;;2.03;0.30;;;19.50;99.90;;;;;;4995025;28;20046;-89
2022/06/26 01:17:34;;;;;;;0.95;0.40;;;19.50;99.90;;;;;;4991634;28;20029;-89
2022/06/26 01:20:01;;;;;;;0.32;0.22;;;19.60;99.90;;;;;;5002092;28;20397;-90
2022/06/26 01:22:29;;;;;;;0.68;0.32;;;19.70;99.90;;;;;;4996897;28;20478;-89
2022/06/26 01:24:54;;;;;;;2.75;0.30;;;19.70;99.90;;;;;;5011391;28;20034;-89
2022/06/26 01:27:20;;;;;;;0.50;0.20;;;19.70;99.90;;;;;;4990331;28;20030;-89
2022/06/26 01:29:46;;;;;;;1.67;0.40;;;19.70;99.90;;;;;;4994012;28;20488;-89
2022/06/26 01:32:11;;;;;;;1.02;0.40;;;19.70;99.90;;;;;;4998305;28;20021;-89
2022/06/26 01:34:37;;;;;;;0.70;0.30;;;19.70;99.90;;;;;;4995958;28;20022;-89
2022/06/26 01:37:06;;;;;;;0.70;0.30;;;19.80;99.90;;;;;;5011410;28;20565;-89
2022/06/26 01:39:32;;;;;;;1.70;0.40;;;19.80;99.90;;;;;;4994430;28;20051;-90
2022/06/26 01:41:58;;;;;;;0.55;0.30;;;19.80;99.90;;;;;;4994740;28;20364;-89
2022/06/26 01:44:24;;;;;;;1.30;0.38;;;19.80;99.90;;;;;;5006030;28;20038;-89
2022/06/26 01:46:52;;;;;;;1.13;0.30;;;19.80;99.90;;;;;;5011125;28;20025;-90
2022/06/26 01:49:18;;;;;;;0.70;0.30;;;19.90;99.90;;;;;;4992147;28;20022;-89
2022/06/26 01:51:44;;;;;;;1.73;0.50;;;19.90;99.90;;;;;;4994875;28;20061;-89
2022/06/26 01:54:10;;;;;;;1.08;0.40;;;19.90;99.90;;;;;;5005163;28;20030;-89
2022/06/26 01:56:36;;;;;;;1.30;0.50;;;19.80;99.90;;;;;;4992570;28;20053;-89
2022/06/26 01:59:01;;;;;;;1.17;0.45;;;19.80;99.90;;;;;;5005032;28;20678;-88
2022/06/26 02:01:27;;;;;;;0.98;0.28;;;19.90;99.90;;;;;;4988993;28;20053;-88
2022/06/26 02:03:52;;;;;;;0.70;0.28;;;19.80;99.90;;;;;;4993160;28;20038;-89
2022/06/26 02:06:18;;;;;;;0.20;0.20;;;19.90;99.90;;;;;;5005482;28;20026;-89
2022/06/26 02:08:44;;;;;;;0.47;0.30;;;19.80;99.90;;;;;;4994421;28;20112;-89
2022/06/26 02:13:54;;;;;;;4.20;0.35;;;19.80;99.90;;;;;;5006139;28;20080;-90
2022/06/26 02:16:28;;;;;;;0.55;0.22;;;19.70;99.90;;;;;;4994388;28;20055;-89
2022/06/26 02:18:56;;;;;;;1.58;0.45;;;19.60;99.90;;;;;;4990094;28;20025;-90
2022/06/26 02:21:27;;;;;;;1.48;0.43;;;19.60;99.90;;;;;;4991134;28;20030;-90
2022/06/26 02:23:53;;;;;;;0.85;0.38;;;19.60;99.90;;;;;;4992052;28;20022;-89
2022/06/26 02:26:20;;;;;;;0.90;0.40;;;19.60;99.90;;;;;;4989781;28;20042;-89
2022/06/26 02:28:46;;;;;;;0.52;0.30;;;19.50;99.90;;;;;;5009208;28;20148;-89
2022/06/26 02:31:12;;;;;;;0.70;0.40;;;19.50;99.90;;;;;;5006123;28;20032;-90
2022/06/26 02:33:38;;;;;;;0.93;0.40;;;19.60;99.90;;;;;;5003811;28;20105;-90
2022/06/26 02:36:08;;;;;;;0.63;0.35;;;19.40;99.90;;;;;;5004446;28;20208;-90
2022/06/26 02:38:35;;;;;;;1.08;0.40;;;19.40;99.90;;;;;;4992142;28;20112;-89
2022/06/26 02:41:01;;;;;;;2.15;0.35;;;19.50;99.90;;;;;;5004208;28;20041;-88
2022/06/26 02:43:27;;;;;;;0.63;0.30;;;19.50;99.90;;;;;;4986305;28;20026;-89
2022/06/26 02:45:55;;;;;;;0.90;0.40;;;19.40;99.90;;;;;;4991695;28;20018;-89
2022/06/26 02:48:21;;;;;;;2.90;0.30;;;19.40;99.90;;;;;;5018466;28;20033;-89
2022/06/26 02:50:49;;;;;;;0.77;0.40;;;19.40;99.90;;;;;;5006561;28;20030;-89
2022/06/26 02:53:16;;;;;;;1.30;0.43;;;19.40;99.90;;;;;;4991668;28;20491;-90
2022/06/26 02:55:42;;;;;;;0.75;0.40;;;19.40;99.90;;;;;;4992302;28;20084;-90
2022/06/26 02:58:07;;;;;;;1.65;0.40;;;19.40;99.90;;;;;;4994788;28;20057;-90
2022/06/26 03:00:34;;;;;;;2.08;0.50;;;19.40;99.90;;;;;;5006882;28;20654;-89
2022/06/26 03:03:03;;;;;;;1.10;0.40;;;19.40;99.90;;;;;;5008463;28;20026;-89
2022/06/26 03:05:32;;;;;;;0.70;0.30;;;19.40;99.90;;;;;;5005830;28;20100;-89
2022/06/26 03:07:58;;;;;;;1.10;0.30;;;19.40;99.90;;;;;;4990545;28;20116;-89
2022/06/26 03:10:24;;;;;;;0.93;0.40;;;19.40;99.90;;;;;;4993616;28;20109;-89
2022/06/26 03:12:50;;;;;;;0.80;0.30;;;19.40;99.90;;;;;;4994195;28;20037;-90
2022/06/26 03:15:16;;;;;;;1.13;0.40;;;19.40;99.90;;;;;;4990189;28;20072;-89
2022/06/26 03:17:42;;;;;;;0.70;0.40;;;19.40;99.90;;;;;;5011042;28;20700;-89
2022/06/26 03:20:13;;;;;;;1.20;0.50;;;19.30;99.90;;;;;;4991043;28;20030;-89
2022/06/26 03:22:39;;;;;;;0.82;0.40;;;19.30;99.90;;;;;;4986605;28;20033;-89
2022/06/26 03:25:06;;;;;;;1.50;0.40;;;19.30;99.90;;;;;;4991845;28;20390;-89
2022/06/26 03:27:32;;;;;;;1.63;0.30;;;19.30;99.90;;;;;;5007227;28;20022;-90
2022/06/26 03:29:58;;;;;;;0.90;0.40;;;19.30;99.90;;;;;;5018802;28;20022;-89
2022/06/26 03:32:24;;;;;;;0.63;0.20;;;19.30;99.90;;;;;;5005484;28;20036;-89
2022/06/26 03:34:50;;;;;;;1.35;0.43;;;19.30;99.90;;;;;;5005993;28;20028;-90
2022/06/26 03:37:15;;;;;;;1.02;0.40;;;19.20;99.90;;;;;;4992010;28;20026;-89
2022/06/26 03:39:41;;;;;;;1.17;0.40;;;19.20;99.90;;;;;;5011862;28;20038;-89
2022/06/26 03:42:07;;;;;;;0.55;0.28;;;19.20;99.90;;;;;;5004588;28;20029;-90
2022/06/26 03:44:33;;;;;;;0.98;0.30;;;19.20;99.90;;;;;;5008204;28;20065;-89
2022/06/26 03:47:01;;;;;;;1.00;0.43;;;19.10;99.90;;;;;;5003373;28;20386;-89
2022/06/26 03:49:27;;;;;;;1.48;0.50;;;19.10;99.90;;;;;;5007646;28;20084;-89
2022/06/26 03:51:53;;;;;;;0.55;0.30;;;19.10;99.90;;;;;;5007950;28;20029;-90
2022/06/26 03:54:21;;;;;;;0.90;0.30;;;19.10;99.90;;;;;;4990213;28;20068;-89
2022/06/26 03:56:47;;;;;;;0.93;0.40;;;19.00;99.90;;;;;;5008692;28;20030;-89
2022/06/26 03:59:15;;;;;;;1.33;0.40;;;19.10;99.90;;;;;;4993583;28;20547;-89
2022/06/26 04:01:42;;;;;;;1.30;0.43;;;19.00;99.90;;;;;;5009281;28;20567;-90
2022/06/26 04:04:08;;;;;;;1.30;0.52;;;19.10;99.90;;;;;;5005365;28;20042;-90
2022/06/26 04:06:34;;;;;;;1.05;0.40;;;19.10;99.90;;;;;;4992216;28;20053;-89
2022/06/26 04:09:03;;;;;;;0.85;0.40;;;19.10;99.90;;;;;;4992898;28;20106;-89
2022/06/26 04:11:29;;;;;;;1.02;0.40;;;19.20;99.90;;;;;;5005341;28;20065;-90
2022/06/26 04:13:55;;;;;;;1.98;0.40;;;19.00;99.90;;;;;;4990075;28;20054;-90
2022/06/26 04:16:21;;;;;;;1.23;0.50;;;19.10;99.90;;;;;;5003993;28;20030;-89
2022/06/26 04:18:46;;;;;;;0.70;0.40;;;19.30;99.90;;;;;;4991937;28;20068;-89
2022/06/26 04:21:12;;;;;;;0.93;0.40;;;19.30;99.90;;;;;;5004805;28;20575;-90
2022/06/26 04:23:38;;;;;;;1.02;0.38;;;19.30;99.90;;;;;;5011461;28;20515;-90
2022/06/26 04:26:04;;;;;;;1.10;0.45;;;19.30;99.90;;;;;;5007702;28;20041;-90
2022/06/26 04:28:30;;;;;;;1.08;0.30;;;19.30;99.90;;;;;;4985372;28;20037;-89
2022/06/26 04:30:56;;;;;;;2.55;0.40;;;19.30;99.90;;;;;;5003963;28;20029;-90
2022/06/26 04:33:22;;;;;;;2.20;0.60;;;19.30;99.90;;;;;;5010719;28;20527;-89
2022/06/26 04:35:47;;;;;;;1.17;0.52;;;19.30;99.90;;;;;;5017487;28;20030;-90
2022/06/26 04:38:13;;;;;;;1.55;0.40;;;19.30;99.90;;;;;;4988791;28;20033;-90
2022/06/26 04:40:38;;;;;;;1.30;0.30;;;19.30;99.90;;;;;;4987625;28;20446;-89
2022/06/26 04:43:04;;;;;;;0.80;0.30;;;19.30;99.90;;;;;;4984400;28;20125;-90
2022/06/26 04:45:30;;;;;;;0.80;0.50;;;19.30;99.90;;;;;;5004238;28;20133;-90
2022/06/26 04:47:55;;;;;;;1.48;0.40;;;19.30;99.90;;;;;;4989867;28;20030;-90
2022/06/26 04:50:21;;;;;;;1.23;0.40;;;19.40;99.90;;;;;;4990537;28;20053;-89
2022/06/26 04:52:49;;;;;;;1.05;0.40;;;19.40;99.90;;;;;;5000490;28;20069;-89
2022/06/26 04:55:15;;;;;;;1.05;0.30;;;19.40;99.90;;;;;;4981980;28;20047;-89
2022/06/26 04:57:41;;;;;;;0.88;0.40;;;19.40;99.90;;;;;;4985506;28;20078;-89
2022/06/26 05:00:09;;;;;;;1.67;0.40;;;19.50;99.90;;;;;;4987591;28;20049;-90
2022/06/26 05:02:36;;;;;;;1.52;0.57;;;19.50;99.90;;;;;;5004001;28;20479;-89
2022/06/26 05:05:03;;;;;;;1.95;0.52;;;19.60;99.90;;;;;;4990817;28;20095;-90
2022/06/26 05:07:30;;;;;;;0.65;0.30;;;19.50;99.90;;;;;;5037836;23;20055;-89
2022/06/26 05:09:55;;;;;;;0.82;0.38;;;19.50;99.90;;;;;;5033000;28;20029;-89
2022/06/26 05:12:21;;;;;;;1.27;0.30;;;19.50;99.90;;;;;;5035150;28;20017;-89
2022/06/26 05:14:47;;;;;;;0.88;0.43;;;19.50;99.90;;;;;;5035312;28;20028;-89
2022/06/26 05:17:13;;;;;;;0.85;0.40;;;19.50;99.90;;;;;;5048992;28;20513;-89
2022/06/26 05:19:38;;;;;;;0.60;0.35;;;19.40;99.90;;;;;;5020714;28;20025;-90
2022/06/26 05:22:05;;;;;;;1.30;0.50;;;19.50;99.90;;;;;;5041299;28;20269;-89
2022/06/26 05:24:30;;;;;;;1.05;0.50;;;19.50;99.90;;;;;;5040102;28;20055;-89
2022/06/26 05:26:58;;;;;;;1.40;0.60;;;19.60;99.90;;;;;;5041283;28;20123;-89
2022/06/26 05:29:25;;;;;;;0.68;0.30;;;19.60;99.90;;;;;;5043415;28;20030;-89
2022/06/26 05:31:51;;;;;;;0.77;0.40;;;19.70;99.90;;;;;;5019110;28;20037;-89
2022/06/26 05:34:16;;;;;;;0.90;0.40;;;19.70;99.90;;;;;;5025878;28;20039;-89
2022/06/26 05:36:42;;;;;;;3.90;0.47;;;19.70;99.90;;;;;;5022010;28;20038;-89
2022/06/26 05:39:08;;;;;;;1.17;0.50;;;19.80;99.90;;;;;;5040497;28;20032;-90
2022/06/26 05:41:33;;;;;;;1.52;0.45;;;19.80;99.90;;;;;;5016947;28;20177;-88
2022/06/26 05:43:59;;;;;;;0.70;0.30;;;19.90;99.90;;;;;;5019146;28;20036;-89
2022/06/26 05:46:28;;;;;;;0.90;0.40;;;19.90;99.90;;;;;;5014126;28;20037;-89
2022/06/26 05:48:57;;;;;;;0.30;0.25;;;19.90;99.90;;;;;;5022853;28;20056;-90
2022/06/26 05:51:22;;;;;;;1.17;0.60;;;19.90;99.90;;;;;;5040246;28;20025;-90
2022/06/26 05:53:48;;;;;;;1.42;0.40;;;19.90;99.90;;;;;;5020541;28;20064;-90
2022/06/26 05:56:14;;;;;;;1.17;0.43;;;19.90;99.90;;;;;;5020895;28;20020;-88
2022/06/26 05:58:39;;;;;;;1.77;0.50;;;19.90;99.90;;;;;;5028473;28;20021;-89
2022/06/26 06:01:05;;;;;;;2.33;0.57;;;19.80;99.90;;;;;;5015415;28;20108;-89
2022/06/26 06:03:31;;;;;;;1.30;0.40;;;19.70;99.90;;;;;;5026000;28;20060;-87
2022/06/26 06:05:58;;;;;;;0.70;0.40;;;19.70;99.90;;;;;;5015988;28;20033;-88
2022/06/26 06:08:23;;;;;;;1.42;0.40;;;19.60;99.90;;;;;;5024873;28;20034;-89
2022/06/26 06:10:49;;;;;;;1.33;0.40;;;19.50;99.90;;;;;;5016896;28;20179;-89
2022/06/26 06:13:17;;;;;;;0.73;0.30;;;19.50;99.90;;;;;;5035676;28;20116;-90
2022/06/26 06:15:43;;;;;;;0.80;0.40;;;19.50;99.90;;;;;;5030275;28;20030;-90
2022/06/26 06:18:11;;;;;;;0.82;0.40;;;19.50;99.90;;;;;;5036947;28;20104;-89
2022/06/26 06:20:36;;;;;;;1.08;0.43;;;19.50;99.90;;;;;;5044694;28;20533;-88
2022/06/26 06:23:06;;;;;;;0.63;0.28;;;19.50;99.90;;;;;;5050525;28;20069;-90
2022/06/26 06:25:32;;;;;;;0.85;0.45;;;19.50;99.90;;;;;;5042079;28;20329;-88
2022/06/26 06:28:00;;;;;;;1.30;0.60;;;19.60;99.90;;;;;;5034662;28;20102;-89
2022/06/26 06:30:27;;;;;;;1.52;0.50;;;19.70;99.90;;;;;;5038124;28;20124;-87
2022/06/26 06:32:53;;;;;;;1.08;0.40;;;19.90;99.90;;;;;;5015878;28;20021;-89
2022/06/26 06:35:22;;;;;;;0.60;0.40;;;20.20;99.90;;;;;;5027948;28;20108;-89
2022/06/26 06:37:50;;;;;;;0.93;0.40;;;20.60;99.90;;;;;;5041705;28;20028;-90
2022/06/26 06:40:16;;;;;;;2.03;0.50;;;20.90;99.90;;;;;;5034542;28;20124;-90
2022/06/26 06:42:43;;;;;;;0.75;0.30;;;21.20;99.90;;;;;;5028695;28;20091;-88
2022/06/26 06:45:09;;;;;;;0.50;0.20;;;21.40;99.90;;;;;;5011194;28;20025;-88
2022/06/26 06:47:56;;;;;;;0.73;0.30;;;21.50;99.90;;;;;;5036615;28;20025;-89
2022/06/26 06:50:22;;;;;;;0.75;0.40;;;21.80;99.90;;;;;;5036467;28;20628;-90
2022/06/26 06:52:47;;;;;;;0.90;0.30;;;21.90;99.90;;;;;;5038789;28;20076;-89
2022/06/26 06:55:13;;;;;;;1.95;0.50;;;22.00;99.90;;;;;;5037616;28;20022;-89
2022/06/26 06:57:38;;;;;;;0.50;0.20;;;22.00;99.90;;;;;;5032909;28;20486;-89
2022/06/26 07:00:05;;;;;;;1.10;0.32;;;22.10;99.90;;;;;;5034770;28;20041;-89
2022/06/26 07:02:31;;;;;;;0.88;0.30;;;22.20;99.90;;;;;;5019960;28;20032;-89
2022/06/26 07:04:57;;;;;;;0.80;0.30;;;22.30;99.90;;;;;;5012786;28;20038;-88
2022/06/26 07:07:22;;;;;;;1.05;0.50;;;22.40;99.90;;;;;;5018208;28;20421;-89
2022/06/26 07:09:48;;;;;;;0.55;0.30;;;22.30;99.90;;;;;;5017918;28;20394;-87
2022/06/26 07:12:13;;;;;;;0.60;0.28;;;22.40;99.90;;;;;;5016756;28;20379;-88
2022/06/26 07:14:39;;;;;;;1.27;0.40;;;22.50;99.90;;;;;;5013804;28;20496;-89
2022/06/26 07:17:08;;;;;;;0.98;0.40;;;22.80;99.90;;;;;;5035969;28;20109;-91
2022/06/26 07:19:34;;;;;;;2.28;0.52;;;22.70;99.90;;;;;;5040157;28;20026;-90
2022/06/26 07:22:00;;;;;;;0.45;0.30;;;22.90;99.90;;;;;;5039285;28;20087;-89
2022/06/26 07:24:26;;;;;;;0.63;0.20;;;22.90;99.90;;;;;;5021829;28;20020;-90
2022/06/26 07:26:52;;;;;;;1.08;0.35;;;23.10;99.90;;;;;;5040165;28;20339;-90
2022/06/26 07:29:17;;;;;;;1.92;0.40;;;23.00;99.90;;;;;;5019099;28;20529;-88
2022/06/26 07:31:43;;;;;;;1.80;0.35;;;23.10;99.90;;;;;;5022336;28;20422;-90
2022/06/26 07:34:18;;;;;;;0.80;0.35;;;23.10;99.90;;;;;;5038490;28;20017;-89
2022/06/26 07:36:46;;;;;;;0.57;0.30;;;23.30;99.90;;;;;;5022772;28;20037;-90
2022/06/26 07:39:13;;;;;;;1.60;0.30;;;23.40;99.90;;;;;;5020583;28;20640;-90
2022/06/26 07:41:40;;;;;;;0.73;0.40;;;23.40;99.90;;;;;;5026501;28;20056;-88
2022/06/26 07:44:06;;;;;;;0.90;0.40;;;23.70;99.90;;;;;;5040879;28;20128;-90
2022/06/26 07:46:33;;;;;;;0.30;0.20;;;23.70;99.90;;;;;;5018146;28;20033;-91
2022/06/26 07:49:09;;;;;;;0.60;0.30;;;23.80;99.90;;;;;;5042774;28;20025;-88
2022/06/26 07:51:56;;;;;;;1.10;0.40;;;23.80;99.90;;;;;;5031948;28;20033;-90
2022/06/26 07:54:21;;;;;;;0.40;0.30;;;23.90;99.90;;;;;;5037859;28;20083;-90
2022/06/26 07:56:50;;;;;;;1.08;0.40;;;24.10;99.90;;;;;;5039657;28;20483;-89
2022/06/26 07:59:20;;;;;;;0.55;0.30;;;24.20;99.90;;;;;;5019915;28;20356;-90
2022/06/26 08:01:45;;;;;;;1.58;0.55;;;24.40;99.90;;;;;;5019940;28;20075;-90
2022/06/26 08:04:17;;;;;;;1.40;0.40;;;24.40;99.90;;;;;;5009058;28;20493;-89
2022/06/26 08:06:42;;;;;;;0.52;0.30;;;24.40;99.90;;;;;;5024820;28;20032;-87
2022/06/26 08:09:37;;;;;;;1.50;0.47;;;24.50;99.90;;;;;;5009088;28;20022;-89
2022/06/26 08:12:05;;;;;;;2.67;0.50;;;24.50;99.90;;;;;;5051749;28;20030;-88
2022/06/26 08:14:31;;;;;;;0.70;0.30;;;24.70;99.90;;;;;;5017294;28;20452;-89
2022/06/26 08:16:56;;;;;;;1.65;0.40;;;24.70;99.90;;;;;;5034336;28;20108;-89
2022/06/26 08:19:22;;;;;;;0.43;0.30;;;24.70;99.90;;;;;;5037373;28;20066;-89
2022/06/26 08:22:05;;;;;;;1.23;0.32;;;24.80;99.90;;;;;;5029012;28;20030;-90
2022/06/26 08:24:33;;;;;;;4.63;0.50;;;24.80;99.90;;;;;;5021919;28;20021;-88
2022/06/26 08:26:59;;;;;;;0.93;0.30;;;24.90;99.90;;;;;;5009249;28;20494;-91
2022/06/26 08:29:26;;;;;;;3.92;0.50;;;25.10;99.70;;;;;;5009248;28;20025;-89
2022/06/26 08:31:53;;;;;;;1.55;0.30;;;25.00;99.80;;;;;;5019551;28;20024;-89
2022/06/26 08:34:19;;;;;;;0.68;0.30;;;25.10;99.90;;;;;;5002164;28;20028;-90
2022/06/26 08:36:46;;;;;;;0.90;0.40;;;25.20;99.90;;;;;;5013168;28;20025;-91
2022/06/26 08:39:12;;;;;;;1.23;0.38;;;25.50;99.90;;;;;;5014129;28;20088;-89
2022/06/26 08:41:41;;;;;;;0.70;0.30;;;25.50;99.60;;;;;;5012687;28;20038;-90
2022/06/26 08:44:08;;;;;;;0.50;0.30;;;25.50;98.80;;;;;;5015942;28;20032;-89
2022/06/26 08:46:43;;;;;;;0.68;0.30;;;25.80;98.60;;;;;;5025996;28;20033;-88
2022/06/26 08:49:18;;;;;;;0.60;0.28;;;25.90;98.50;;;;;;5026691;28;20108;-89
2022/06/26 08:51:46;;;;;;;0.95;0.30;;;25.90;98.50;;;;;;5024309;28;20029;-87
2022/06/26 08:54:13;;;;;;;1.20;0.47;;;25.80;97.80;;;;;;5018625;28;20028;-89
2022/06/26 08:56:44;;;;;;;0.85;0.35;;;25.70;97.70;;;;;;5041421;28;20026;-89
2022/06/26 08:59:12;;;;;;;1.67;0.40;;;25.70;98.20;;;;;;5028352;28;20399;-90
2022/06/26 09:01:39;;;;;;;0.70;0.40;;;25.90;98.50;;;;;;5036672;28;20040;-88
2022/06/26 09:04:05;;;;;;;0.95;0.30;;;26.00;97.80;;;;;;5046271;28;20060;-89
2022/06/26 09:06:39;;;;;;;1.17;0.20;;;26.10;97.80;;;;;;5044305;28;20033;-89
2022/06/26 09:09:17;;;;;;;0.47;0.22;;;26.30;97.40;;;;;;5023816;28;20113;-89
2022/06/26 09:11:43;;;;;;;0.65;0.30;;;26.30;97.00;;;;;;5036735;28;20017;-88
2022/06/26 09:14:13;;;;;;;0.40;0.20;;;26.30;97.10;;;;;;5049472;28;20021;-89
2022/06/26 09:16:42;;;;;;;0.20;0.20;;;26.60;96.60;;;;;;5042664;28;20079;-90
2022/06/26 09:19:33;;;;;;;0.63;0.10;;;26.70;96.30;;;;;;5049964;28;20034;-89
2022/06/26 09:22:10;;;;;;;1.07;0.30;;;26.70;96.30;;;;;;5023578;28;20048;-89
2022/06/26 09:24:37;;;;;;;0.70;0.17;;;26.70;96.20;;;;;;5043534;28;20029;-89
2022/06/26 09:27:10;;;;;;;0.50;0.20;;;26.60;96.20;;;;;;5028076;28;20025;-89
2022/06/26 09:29:37;;;;;;;0.75;0.30;;;26.60;96.00;;;;;;5029507;28;20021;-89
2022/06/26 09:32:16;;;;;;;0.30;0.20;;;26.80;95.90;;;;;;5045042;28;20045;-90
2022/06/26 09:34:47;;;;;;;0.40;0.20;;;26.80;96.60;;;;;;5019707;28;20037;-88
2022/06/26 09:37:13;;;;;;;0.28;0.17;;;27.10;96.00;;;;;;5026594;28;20026;-90
2022/06/26 09:39:39;;;;;;;0.30;0.20;;;27.30;95.10;;;;;;5045150;28;20029;-90
2022/06/26 09:42:22;;;;;;;1.73;0.20;;;27.50;95.20;;;;;;5022199;28;20032;-90
2022/06/26 09:44:49;;;;;;;0.60;0.30;;;27.60;94.70;;;;;;5021209;28;20036;-89
2022/06/26 09:47:23;;;;;;;0.30;0.20;;;27.60;94.60;;;;;;5047060;28;20024;-89
2022/06/26 09:49:51;;;;;;;0.75;0.20;;;27.80;94.70;;;;;;5024248;28;20028;-90
2022/06/26 09:52:24;;;;;;;1.30;0.40;;;28.20;94.00;;;;;;5299507;22;20286;-86
2022/06/26 09:54:51;;;;;;;0.93;0.20;;;28.00;94.20;;;;;;5022250;28;20032;-87
2022/06/26 09:57:18;;;;;;;0.60;0.20;;;27.80;93.60;;;;;;5042443;28;20029;-87
2022/06/26 09:59:44;;;;;;;0.25;0.17;;;27.60;93.50;;;;;;5024024;28;20066;-87
2022/06/26 10:07:55;;;;;;;1.30;0.30;;;27.90;93.00;;;;;;5025891;28;20143;-85
2022/06/26 10:10:28;;;;;;;0.73;0.28;;;28.20;92.90;;;;;;5021933;28;20033;-85
2022/06/26 10:13:17;;;;;;;1.33;0.30;;;28.00;92.60;;;;;;5033780;28;20022;-85
2022/06/26 10:16:11;;;;;;;1.27;0.40;;;27.90;93.10;;;;;;5020632;28;20034;-85
2022/06/26 10:18:52;;;;;;;0.73;0.25;;;27.90;92.70;;;;;;5007849;28;20026;-85
2022/06/26 10:21:18;;;;;;;;;;;28.10;93.10;;;;;;4988749;28;20125;-85
2022/06/26 10:23:44;;;;;;;0.32;0.20;;;28.40;92.90;;;;;;5009886;28;19917;-85
2022/06/26 10:26:11;;;;;;;0.85;0.30;;;28.50;92.40;;;;;;5010850;28;20021;-85
2022/06/26 10:28:37;;;;;;;1.17;0.30;;;28.30;92.40;;;;;;5007893;28;20025;-85
2022/06/26 10:31:14;;;;;;;0.50;0.20;;;28.60;93.00;;;;;;5012107;28;20206;-85
2022/06/26 10:33:47;;;;;;;0.17;0.10;;;28.70;92.70;;;;;;4992048;28;20057;-86
2022/06/26 10:36:21;;;;;;;0.73;0.25;;;29.00;92.60;;;;;;4993566;28;20425;-85
2022/06/26 10:38:47;;;;;;;1.92;0.20;;;29.10;91.90;;;;;;5010113;28;20036;-85
2022/06/26 10:44:04;;;;;;;0.28;0.20;;;29.80;91.20;;;;;;5009385;28;20037;-86
2022/06/26 10:46:58;;;;;;;0.65;0.20;;;29.60;90.80;;;;;;5009184;28;20489;-85
2022/06/26 10:49:27;;;;;;;0.98;0.38;;;29.50;90.60;;;;;;5008785;28;20091;-84
2022/06/26 10:51:52;;;;;;;0.45;0.20;;;29.40;90.20;;;;;;4988450;28;20462;-86
2022/06/26 10:54:22;;;;;;;0.68;0.20;;;29.50;90.40;;;;;;4993980;28;20037;-85
2022/06/26 10:57:17;;;;;;;0.40;0.20;;;29.60;90.50;;;;;;4992698;28;20044;-85
2022/06/26 10:59:44;;;;;;;0.40;0.20;;;30.00;90.00;;;;;;5006803;28;20041;-85
2022/06/26 11:02:12;;;;;;;0.75;0.20;;;30.00;90.00;;;;;;5010436;28;20030;-85
2022/06/26 11:04:46;;;;;;;1.85;0.30;;;30.30;89.70;;;;;;5007389;28;20061;-84
2022/06/26 11:07:14;;;;;;;1.48;0.40;;;30.30;86.90;;;;;;4992047;28;20030;-85
2022/06/26 11:09:40;;;;;;;1.88;0.68;;;30.30;88.60;;;;;;5009938;28;20032;-85
2022/06/26 11:12:10;;;;;;;0.90;0.30;;;30.30;88.40;;;;;;5009769;28;20085;-86
2022/06/26 11:14:35;;;;;;;1.30;0.20;;;30.20;88.80;;;;;;5012066;28;20014;-86
2022/06/26 11:17:01;;;;;;;0.47;0.20;;;29.70;87.70;;;;;;4985503;28;20128;-85
2022/06/26 11:19:29;;;;;;;0.90;0.22;;;29.30;88.50;;;;;;4991830;28;20044;-85
2022/06/26 11:22:08;;;;;;;0.17;0.17;;;29.20;88.40;;;;;;4991895;28;20512;-84
2022/06/26 11:24:36;;;;;;;0.20;0.20;;;29.20;89.50;;;;;;4990534;28;20481;-85
2022/06/26 11:27:02;;;;;;;0.35;0.15;;;29.20;86.90;;;;;;4983111;28;20034;-85
2022/06/26 11:29:28;;;;;;;0.52;0.17;;;29.20;88.10;;;;;;5010442;28;20022;-85
2022/06/26 11:31:54;;;;;;;0.60;0.20;;;29.10;88.40;;;;;;5002158;28;20048;-85
2022/06/26 11:34:20;;;;;;;0.68;0.20;;;29.00;89.10;;;;;;5002019;28;20053;-86
2022/06/26 11:36:58;;;;;;;0.60;0.20;;;28.90;89.10;;;;;;4992014;28;20486;-85
2022/06/26 11:39:28;;;;;;;0.55;0.20;;;28.80;89.10;;;;;;4990654;28;20042;-85
2022/06/26 11:41:53;;;;;;;0.30;0.20;;;28.90;90.40;;;;;;5012232;28;20042;-85
2022/06/26 11:44:20;;;;;;;0.43;0.10;;;29.10;90.00;;;;;;5010721;28;20026;-85
2022/06/26 11:46:48;;;;;;;1.30;0.40;;;29.30;90.10;;;;;;5011205;28;20033;-85
2022/06/26 11:49:14;;;;;;;0.47;0.20;;;29.60;90.20;;;;;;5010753;28;20049;-85
2022/06/26 11:51:42;;;;;;;0.40;0.20;;;29.90;88.20;;;;;;4997103;28;20029;-85
2022/06/26 11:54:11;;;;;;;0.40;0.10;;;30.10;87.10;;;;;;5004420;28;20494;-85
2022/06/26 11:56:37;;;;;;;0.30;0.20;;;30.40;86.30;;;;;;5011850;28;20046;-86
2022/06/26 11:59:05;;;;;;;0.47;0.20;;;30.50;84.90;;;;;;5003768;28;20021;-85
2022/06/26 12:01:33;;;;;;;0.10;0.10;;;30.60;83.90;;;;;;4995162;28;20027;-85
2022/06/26 12:03:59;;;;;;;0.38;0.10;;;30.90;83.90;;;;;;5009601;28;20113;-87
2022/06/26 12:06:35;;;;;;;1.73;0.30;;;31.00;83.80;;;;;;5000626;28;20116;-86
2022/06/26 12:09:21;;;;;;;0.40;0.10;;;30.70;83.60;;;;;;5009304;28;20030;-85
2022/06/26 12:11:49;;;;;;;0.10;0.08;;;31.10;82.80;;;;;;5007888;28;20026;-85
2022/06/26 12:14:18;;;;;;;0.38;0.10;;;31.00;83.20;;;;;;5008396;28;20401;-85
2022/06/26 12:16:54;;;;;;;1.02;0.32;;;31.00;82.20;;;;;;5007487;28;20134;-85
2022/06/26 12:19:26;;;;;;;0.55;0.15;;;31.10;81.90;;;;;;5005574;28;20033;-85
2022/06/26 12:21:53;;;;;;;0.90;0.25;;;31.20;81.50;;;;;;4992400;28;20084;-85
2022/06/26 12:24:20;;;;;;;0.40;0.20;;;31.30;80.90;;;;;;5005958;28;20496;-84
2022/06/26 12:26:47;;;;;;;1.40;0.20;;;31.40;80.10;;;;;;5005648;28;20056;-85
2022/06/26 12:29:15;;;;;;;0.43;0.20;;;31.20;80.10;;;;;;5009754;28;20077;-85
2022/06/26 12:31:43;;;;;;;0.20;0.10;;;31.50;79.50;;;;;;5010763;28;20498;-87
2022/06/26 12:34:09;;;;;;;0.38;0.10;;;31.70;80.00;;;;;;5008318;28;20052;-87
2022/06/26 12:36:38;;;;;;;1.30;0.20;;;31.70;80.50;;;;;;4995898;28;20026;-86
2022/06/26 12:39:07;;;;;;;0.50;0.10;;;31.50;81.10;;;;;;5006564;28;20672;-85
2022/06/26 12:41:32;;;;;;;0.30;0.10;;;31.70;80.60;;;;;;5003827;28;20072;-86
2022/06/26 12:44:03;;;;;;;0.17;0.10;;;32.00;80.50;;;;;;4992566;28;20460;-86
2022/06/26 12:46:30;;;;;;;0.30;0.10;;;32.00;79.40;;;;;;5008934;28;20026;-85
2022/06/26 12:48:57;;;;;;;0.17;0.10;;;31.90;79.20;;;;;;4991640;28;20088;-86
2022/06/26 12:51:28;;;;;;;0.20;0.10;;;31.80;80.90;;;;;;4997821;28;20022;-86
2022/06/26 12:53:54;;;;;;;0.40;0.25;;;31.80;78.20;;;;;;4992769;28;20026;-85
2022/06/26 12:56:21;;;;;;;0.47;0.17;;;31.80;77.70;;;;;;5011034;28;20289;-86
2022/06/26 12:58:46;;;;;;;0.30;0.17;;;31.80;76.80;;;;;;5009356;28;20034;-85
2022/06/26 13:01:12;;;;;;;0.57;0.20;;;32.10;77.90;;;;;;5008207;28;20156;-86
2022/06/26 13:03:40;;;;;;;0.20;0.10;;;32.00;76.90;;;;;;5008575;28;20022;-86